createdAt,value
2018-06-23T00:01:38.856Z,18.10
2018-06-23T00:04:06.971Z,18.00
2018-06-23T00:06:35.116Z,17.90
2018-06-23T00:09:03.440Z,17.90
2018-06-23T00:11:31.635Z,17.90
2018-06-23T00:13:59.752Z,18.20
2018-06-23T00:16:27.904Z,17.90
2018-06-23T00:18:56.049Z,18.00
2018-06-23T00:21:24.172Z,18.00
2018-06-23T00:23:52.332Z,18.10
2018-06-23T00:26:26.120Z,18.00
2018-06-23T00:28:54.244Z,18.00
2018-06-23T00:31:22.396Z,17.80
2018-06-23T00:33:50.551Z,17.60
2018-06-23T00:36:18.676Z,17.60
2018-06-23T00:38:46.824Z,17.50
2018-06-23T00:41:14.952Z,17.60
2018-06-23T00:43:43.147Z,17.70
2018-06-23T00:46:11.431Z,17.70
2018-06-23T00:48:39.580Z,17.70
2018-06-23T00:51:07.989Z,17.70
2018-06-23T00:53:36.143Z,17.70
2018-06-23T00:56:04.308Z,17.60
2018-06-23T00:58:43.878Z,17.60
2018-06-23T01:01:12.027Z,17.60
2018-06-23T01:03:40.190Z,17.60
2018-06-23T01:06:08.292Z,17.60
2018-06-23T01:08:36.482Z,17.70
2018-06-23T01:11:05.061Z,17.60
2018-06-23T01:13:33.654Z,17.50
2018-06-23T01:16:01.769Z,17.60
2018-06-23T01:18:29.889Z,17.50
2018-06-23T01:20:57.995Z,17.40
2018-06-23T01:23:26.120Z,17.50
2018-06-23T01:25:54.253Z,17.40
2018-06-23T01:28:22.360Z,17.50
2018-06-23T01:30:50.467Z,17.70
2018-06-23T01:33:18.594Z,17.60
2018-06-23T01:35:46.765Z,17.60
2018-06-23T01:38:14.891Z,17.50
2018-06-23T01:40:43.048Z,17.50
2018-06-23T01:43:11.184Z,17.50
2018-06-23T01:45:39.325Z,17.40
2018-06-23T01:48:07.480Z,17.50
2018-06-23T01:50:35.596Z,17.30
2018-06-23T01:53:03.725Z,17.30
2018-06-23T01:55:31.855Z,17.30
2018-06-23T01:58:00.381Z,17.20
2018-06-23T02:00:28.543Z,17.30
2018-06-23T02:02:56.788Z,17.10
2018-06-23T02:05:24.909Z,17.00
2018-06-23T02:07:53.064Z,16.90
2018-06-23T02:10:21.157Z,17.10
2018-06-23T02:12:49.305Z,17.30
2018-06-23T02:15:18.328Z,17.30
2018-06-23T02:17:51.888Z,17.30
2018-06-23T02:20:25.480Z,17.30
2018-06-23T02:22:59.080Z,17.30
2018-06-23T02:25:32.644Z,17.50
2018-06-23T02:28:06.260Z,17.10
2018-06-23T02:30:41.001Z,17.10
2018-06-23T02:33:14.567Z,17.30
2018-06-23T02:35:42.684Z,17.20
2018-06-23T02:38:10.816Z,17.10
2018-06-23T02:40:38.913Z,17.00
2018-06-23T02:43:07.020Z,17.10
2018-06-23T02:45:35.127Z,17.10
2018-06-23T02:48:03.246Z,16.90
2018-06-23T02:50:31.385Z,17.00
2018-06-23T02:52:59.509Z,17.00
2018-06-23T02:55:27.641Z,16.90
2018-06-23T02:57:55.756Z,17.00
2018-06-23T03:00:23.868Z,16.90
2018-06-23T03:02:52.971Z,16.90
2018-06-23T03:05:21.096Z,17.00
2018-06-23T03:07:49.236Z,16.90
2018-06-23T03:10:18.278Z,16.60
2018-06-23T03:12:46.391Z,16.70
2018-06-23T03:15:14.748Z,16.60
2018-06-23T03:17:42.861Z,16.50
2018-06-23T03:20:10.975Z,16.40
2018-06-23T03:22:39.152Z,16.50
2018-06-23T03:25:07.257Z,16.50
2018-06-23T03:27:35.532Z,16.30
2018-06-23T03:30:03.679Z,16.10
2018-06-23T03:32:31.811Z,16.30
2018-06-23T03:34:59.948Z,16.20
2018-06-23T03:37:28.069Z,16.00
2018-06-23T03:39:56.186Z,16.20
2018-06-23T03:42:24.311Z,16.20
2018-06-23T03:44:52.427Z,16.30
2018-06-23T03:47:20.539Z,16.20
2018-06-23T03:49:48.663Z,15.80
2018-06-23T03:52:16.778Z,16.10
2018-06-23T03:54:44.964Z,16.20
2018-06-23T03:57:13.079Z,16.20
2018-06-23T03:59:41.200Z,16.20
2018-06-23T04:02:09.307Z,16.40
2018-06-23T04:04:37.440Z,16.30
2018-06-23T04:07:05.585Z,16.60
2018-06-23T04:09:33.699Z,16.60
2018-06-23T04:12:01.823Z,16.60
2018-06-23T04:14:29.999Z,16.80
2018-06-23T04:16:58.671Z,16.70
2018-06-23T04:19:26.796Z,16.60
2018-06-23T04:21:54.899Z,16.60
2018-06-23T04:24:23.097Z,16.80
2018-06-23T04:26:51.211Z,17.00
2018-06-23T04:29:19.354Z,16.70
2018-06-23T04:31:47.432Z,16.70
2018-06-23T04:34:15.560Z,17.00
2018-06-23T04:36:43.691Z,17.10
2018-06-23T04:39:11.832Z,16.70
2018-06-23T04:41:40.007Z,17.00
2018-06-23T04:44:08.083Z,17.00
2018-06-23T04:46:36.208Z,16.50
2018-06-23T04:49:04.331Z,16.50
2018-06-23T04:51:32.519Z,16.30
2018-06-23T04:54:00.615Z,16.60
2018-06-23T04:56:28.708Z,16.80
2018-06-23T04:58:56.809Z,16.80
2018-06-23T05:01:24.925Z,17.00
2018-06-23T05:03:53.032Z,17.10
2018-06-23T05:06:21.131Z,17.00
2018-06-23T05:08:49.245Z,16.80
2018-06-23T05:11:17.343Z,17.20
2018-06-23T05:13:45.476Z,17.30
2018-06-23T05:16:13.643Z,17.50
2018-06-23T05:18:41.829Z,17.30
2018-06-23T05:21:09.956Z,17.30
2018-06-23T05:23:38.079Z,17.50
2018-06-23T05:26:06.299Z,17.30
2018-06-23T05:28:34.319Z,17.30
2018-06-23T05:31:02.448Z,17.30
2018-06-23T05:33:30.540Z,17.00
2018-06-23T05:35:58.659Z,17.30
2018-06-23T05:38:26.820Z,16.80
2018-06-23T05:40:55.961Z,16.70
2018-06-23T05:43:24.072Z,17.10
2018-06-23T05:45:52.230Z,17.30
2018-06-23T05:48:20.319Z,17.50
2018-06-23T05:50:48.896Z,16.90
2018-06-23T05:53:17.096Z,17.10
2018-06-23T05:55:45.219Z,17.20
2018-06-23T05:58:13.408Z,17.00
2018-06-23T06:00:41.523Z,16.90
2018-06-23T06:03:09.620Z,17.10
2018-06-23T06:05:37.735Z,17.20
2018-06-23T06:08:05.864Z,17.30
2018-06-23T06:10:33.975Z,16.90
2018-06-23T06:13:02.109Z,16.80
2018-06-23T06:15:30.324Z,16.30
2018-06-23T06:18:01.495Z,16.50
2018-06-23T06:20:31.362Z,16.70
2018-06-23T06:23:00.460Z,16.60
2018-06-23T06:25:29.394Z,16.50
2018-06-23T06:27:57.587Z,16.50
2018-06-23T06:30:25.696Z,16.50
2018-06-23T06:32:53.955Z,16.70
2018-06-23T06:35:22.207Z,16.50
2018-06-23T06:37:50.457Z,16.40
2018-06-23T06:40:18.885Z,16.30
2018-06-23T06:42:47.035Z,16.50
2018-06-23T06:45:15.169Z,16.90
2018-06-23T06:47:43.304Z,17.10
2018-06-23T06:50:11.433Z,17.20
2018-06-23T06:52:39.605Z,17.60
2018-06-23T06:55:07.736Z,18.10
2018-06-23T06:57:35.874Z,18.30
2018-06-23T07:00:04.433Z,19.30
2018-06-23T07:02:32.584Z,20.50
2018-06-23T07:05:00.765Z,21.10
2018-06-23T07:07:28.906Z,20.00
2018-06-23T07:09:57.036Z,19.70
2018-06-23T07:12:25.183Z,19.70
2018-06-23T07:14:53.340Z,20.00
2018-06-23T07:19:49.425Z,20.90
2018-06-23T07:22:17.635Z,21.40
2018-06-23T07:24:45.770Z,21.40
2018-06-23T07:27:14.008Z,20.90
2018-06-23T07:29:48.628Z,20.70
2018-06-23T07:34:44.737Z,19.70
2018-06-23T07:37:12.814Z,19.70
2018-06-23T07:39:40.943Z,19.70
2018-06-23T07:42:09.059Z,20.00
2018-06-23T07:44:37.192Z,20.20
2018-06-23T07:47:05.315Z,19.90
2018-06-23T07:49:33.447Z,20.00
2018-06-23T07:52:01.680Z,20.10
2018-06-23T07:54:29.795Z,19.90
2018-06-23T07:56:57.925Z,20.10
2018-06-23T07:59:26.055Z,20.30
2018-06-23T08:01:55.083Z,20.00
2018-06-23T08:04:23.191Z,20.30
2018-06-23T08:06:51.356Z,20.50
2018-06-23T08:09:19.479Z,20.60
2018-06-23T08:11:48.300Z,20.70
2018-06-23T08:14:16.391Z,21.30
2018-06-23T08:16:44.516Z,23.10
2018-06-23T08:19:12.899Z,24.50
2018-06-23T08:21:40.994Z,25.40
2018-06-23T08:26:37.190Z,24.60
2018-06-23T08:29:05.215Z,23.70
2018-06-23T08:31:33.370Z,22.20
2018-06-23T08:34:01.489Z,21.90
2018-06-23T08:36:29.623Z,22.20
2018-06-23T08:38:57.735Z,22.50
2018-06-23T08:41:25.852Z,23.90
2018-06-23T08:43:54.032Z,26.00
2018-06-23T08:46:22.151Z,27.60
2018-06-23T08:48:50.783Z,28.10
2018-06-23T08:51:19.059Z,27.40
2018-06-23T08:53:47.169Z,26.60
2018-06-23T08:56:15.389Z,26.30
2018-06-23T08:58:43.547Z,25.80
2018-06-23T09:01:11.670Z,25.70
2018-06-23T09:03:39.804Z,25.90
2018-06-23T09:06:08.119Z,26.00
2018-06-23T09:08:36.256Z,25.80
2018-06-23T09:11:04.381Z,25.40
2018-06-23T09:13:32.502Z,25.10
2018-06-23T09:16:00.599Z,25.10
2018-06-23T09:18:28.734Z,25.40
2018-06-23T09:20:56.895Z,26.60
2018-06-23T09:23:25.909Z,26.90
2018-06-23T09:28:21.912Z,24.40
2018-06-23T09:30:50.923Z,24.50
2018-06-23T09:33:19.237Z,24.70
2018-06-23T09:35:47.335Z,26.20
2018-06-23T09:38:15.486Z,25.90
2018-06-23T09:40:43.597Z,25.80
2018-06-23T09:43:11.751Z,26.00
2018-06-23T09:45:39.867Z,25.80
2018-06-23T09:50:35.884Z,28.40
2018-06-23T09:53:04.018Z,30.30
2018-06-23T09:55:32.131Z,31.40
2018-06-23T09:58:00.235Z,32.70
2018-06-23T10:00:28.775Z,32.80
2018-06-23T10:02:58.287Z,32.00
2018-06-23T10:05:27.131Z,30.40
2018-06-23T10:07:55.355Z,29.30
2018-06-23T10:10:23.488Z,29.50
2018-06-23T10:12:51.619Z,30.90
2018-06-23T10:15:19.783Z,32.70
2018-06-23T10:17:47.854Z,33.60
2018-06-23T10:20:15.951Z,32.80
2018-06-23T10:22:45.097Z,32.40
2018-06-23T10:25:13.210Z,33.00
2018-06-23T10:27:41.370Z,33.90
2018-06-23T10:30:09.472Z,35.40
2018-06-23T10:32:37.599Z,36.20
2018-06-23T10:35:05.888Z,35.80
2018-06-23T10:37:34.180Z,34.60
2018-06-23T10:40:02.317Z,34.30
2018-06-23T10:42:30.416Z,35.10
2018-06-23T10:44:58.521Z,34.80
2018-06-23T10:47:26.654Z,33.40
2018-06-23T10:49:54.779Z,31.10
2018-06-23T10:52:23.824Z,29.40
2018-06-23T10:54:51.955Z,28.20
2018-06-23T10:57:20.079Z,27.70
2018-06-23T10:59:48.811Z,27.90
2018-06-23T11:02:16.973Z,28.50
2018-06-23T11:07:13.000Z,27.50
2018-06-23T11:09:41.104Z,26.70
2018-06-23T11:12:09.240Z,26.50
2018-06-23T11:14:37.348Z,27.20
2018-06-23T11:17:05.452Z,29.30
2018-06-23T11:19:33.567Z,30.40
2018-06-23T11:22:01.701Z,31.20
2018-06-23T11:24:30.011Z,30.90
2018-06-23T11:26:58.048Z,29.60
2018-06-23T11:29:26.159Z,28.70
2018-06-23T11:31:54.272Z,27.70
2018-06-23T11:34:22.453Z,26.70
2018-06-23T11:36:50.560Z,25.80
2018-06-23T11:39:19.496Z,25.10
2018-06-23T11:41:47.616Z,24.60
2018-06-23T11:44:15.752Z,24.70
2018-06-23T11:46:43.868Z,24.80
2018-06-23T11:49:12.000Z,25.00
2018-06-23T11:51:40.130Z,25.50
2018-06-23T11:54:08.256Z,25.80
2018-06-23T11:56:36.708Z,26.00
2018-06-23T11:59:04.844Z,26.30
2018-06-23T12:01:33.221Z,26.60
2018-06-23T12:04:01.356Z,26.20
2018-06-23T12:06:29.543Z,25.00
2018-06-23T12:08:57.655Z,24.40
2018-06-23T12:11:25.776Z,24.30
2018-06-23T12:13:53.907Z,24.70
2018-06-23T12:16:22.072Z,24.80
2018-06-23T12:18:50.216Z,25.10
2018-06-23T12:21:18.323Z,25.40
2018-06-23T12:23:46.462Z,26.00
2018-06-23T12:26:14.660Z,26.00
2018-06-23T12:28:42.763Z,25.70
2018-06-23T12:31:10.880Z,26.00
2018-06-23T12:33:39.023Z,26.30
2018-06-23T12:36:07.141Z,26.70
2018-06-23T12:38:35.295Z,26.60
2018-06-23T12:41:03.399Z,26.60
2018-06-23T12:43:31.550Z,26.30
2018-06-23T12:45:59.655Z,26.50
2018-06-23T12:48:27.987Z,26.00
2018-06-23T12:50:56.154Z,26.50
2018-06-23T12:53:24.285Z,27.30
2018-06-23T12:55:52.456Z,27.70
2018-06-23T12:58:20.604Z,27.60
2018-06-23T13:00:49.506Z,27.40
2018-06-23T13:03:17.729Z,26.50
2018-06-23T13:05:45.848Z,26.50
2018-06-23T13:08:13.979Z,26.70
2018-06-23T13:10:42.100Z,27.00
2018-06-23T13:13:10.911Z,26.80
2018-06-23T13:15:39.040Z,26.70
2018-06-23T13:18:07.864Z,26.80
2018-06-23T13:20:35.999Z,27.30
2018-06-23T13:23:04.120Z,28.30
2018-06-23T13:25:32.559Z,29.80
2018-06-23T13:28:00.710Z,31.10
2018-06-23T13:30:28.808Z,30.20
2018-06-23T13:32:56.987Z,29.30
2018-06-23T13:35:25.104Z,28.50
2018-06-23T13:37:53.200Z,27.80
2018-06-23T13:40:21.318Z,27.20
2018-06-23T13:42:49.418Z,26.80
2018-06-23T13:45:17.563Z,26.20
2018-06-23T13:47:45.668Z,26.00
2018-06-23T13:50:13.807Z,25.80
2018-06-23T13:52:42.003Z,25.50
2018-06-23T13:55:10.128Z,25.50
2018-06-23T13:57:38.235Z,26.40
2018-06-23T14:00:07.517Z,26.50
2018-06-23T14:02:35.633Z,27.20
2018-06-23T14:05:03.966Z,28.00
2018-06-23T14:07:32.120Z,28.20
2018-06-23T14:10:00.213Z,28.10
2018-06-23T14:12:28.656Z,28.60
2018-06-23T14:14:56.836Z,28.90
2018-06-23T14:17:24.961Z,29.50
2018-06-23T14:19:53.100Z,29.90
2018-06-23T14:22:21.263Z,30.10
2018-06-23T14:27:17.236Z,28.80
2018-06-23T14:29:45.356Z,28.20
2018-06-23T14:32:13.599Z,27.50
2018-06-23T14:34:41.580Z,26.80
2018-06-23T14:37:09.708Z,26.60
2018-06-23T14:39:37.823Z,26.60
2018-06-23T14:42:06.020Z,26.10
2018-06-23T14:44:34.128Z,26.20
2018-06-23T14:47:02.291Z,25.90
2018-06-23T14:49:30.405Z,26.10
2018-06-23T14:51:58.517Z,26.00
2018-06-23T14:54:26.703Z,26.10
2018-06-23T14:56:54.817Z,26.20
2018-06-23T14:59:22.919Z,26.40
2018-06-23T15:01:51.011Z,26.20
2018-06-23T15:04:19.902Z,26.10
2018-06-23T15:06:48.014Z,26.00
2018-06-23T15:09:27.841Z,25.70
2018-06-23T15:12:07.344Z,25.40
2018-06-23T15:14:36.336Z,25.40
2018-06-23T15:17:04.731Z,25.80
2018-06-23T15:19:32.844Z,26.20
2018-06-23T15:22:01.577Z,25.80
2018-06-23T15:24:29.695Z,25.70
2018-06-23T15:26:57.807Z,26.20
2018-06-23T15:29:25.917Z,26.50
2018-06-23T15:31:54.052Z,26.60
2018-06-23T15:34:22.237Z,26.70
2018-06-23T15:36:50.340Z,26.20
2018-06-23T15:39:18.476Z,25.60
2018-06-23T15:41:46.584Z,25.40
2018-06-23T15:44:15.421Z,25.10
2018-06-23T15:46:43.525Z,25.10
2018-06-23T15:49:11.620Z,25.50
2018-06-23T15:51:39.738Z,25.80
2018-06-23T15:54:08.052Z,26.10
2018-06-23T15:56:36.211Z,26.30
2018-06-23T15:59:04.315Z,26.40
2018-06-23T16:01:32.431Z,26.30
2018-06-23T16:04:00.541Z,26.40
2018-06-23T16:06:29.159Z,26.50
2018-06-23T16:08:57.320Z,26.50
2018-06-23T16:11:25.385Z,26.50
2018-06-23T16:13:53.531Z,26.40
2018-06-23T16:16:21.724Z,25.70
2018-06-23T16:18:49.948Z,25.50
2018-06-23T16:21:18.099Z,25.50
2018-06-23T16:23:46.208Z,25.50
2018-06-23T16:36:29.009Z,22.40
2018-06-23T16:38:57.104Z,23.10
2018-06-23T16:41:25.232Z,24.10
2018-06-23T16:43:53.376Z,24.70
2018-06-23T16:46:21.551Z,25.10
2018-06-23T16:48:49.644Z,25.30
2018-06-23T16:51:17.784Z,25.40
2018-06-23T16:53:45.979Z,25.40
2018-06-23T16:56:14.116Z,25.30
2018-06-23T16:58:42.243Z,25.50
2018-06-23T17:01:10.377Z,25.40
2018-06-23T17:03:38.561Z,25.40
2018-06-23T17:06:06.615Z,25.00
2018-06-23T17:08:34.736Z,25.10
2018-06-23T17:11:02.856Z,25.10
2018-06-23T17:13:31.040Z,25.30
2018-06-23T17:15:59.177Z,25.20
2018-06-23T17:18:27.295Z,25.30
2018-06-23T17:20:55.434Z,25.20
2018-06-23T17:23:23.534Z,25.40
2018-06-23T17:25:51.691Z,25.40
2018-06-23T17:28:20.335Z,25.40
2018-06-23T17:30:48.489Z,25.50
2018-06-23T17:33:16.635Z,25.20
2018-06-23T17:35:44.780Z,25.10
2018-06-23T17:38:12.894Z,25.10
2018-06-23T17:40:41.235Z,25.00
2018-06-23T17:43:09.369Z,24.90
2018-06-23T17:45:37.479Z,24.70
2018-06-23T17:48:05.612Z,24.80
2018-06-23T17:50:33.724Z,24.80
2018-06-23T17:53:01.836Z,24.70
2018-06-23T17:55:29.968Z,24.70
2018-06-23T17:57:58.370Z,24.50
2018-06-23T18:00:26.258Z,24.30
2018-06-23T18:02:54.479Z,24.20
2018-06-23T18:07:50.520Z,24.30
2018-06-23T18:10:18.634Z,24.30
2018-06-23T18:12:46.780Z,24.10
2018-06-23T18:15:14.908Z,24.20
2018-06-23T18:17:43.040Z,24.30
2018-06-23T18:20:11.158Z,24.20
2018-06-23T18:22:39.327Z,24.20
2018-06-23T18:25:07.463Z,24.20
2018-06-23T18:27:35.880Z,24.00
2018-06-23T18:30:04.363Z,23.90
2018-06-23T18:32:32.500Z,23.90
2018-06-23T18:35:00.613Z,23.90
2018-06-23T18:37:28.747Z,24.00
2018-06-23T18:39:56.880Z,24.00
2018-06-23T18:42:25.228Z,24.00
2018-06-23T18:44:53.370Z,23.90
2018-06-23T18:47:21.500Z,23.70
2018-06-23T18:49:49.656Z,23.50
2018-06-23T18:52:17.982Z,23.70
2018-06-23T18:54:46.103Z,23.80
2018-06-23T18:57:14.389Z,23.70
2018-06-23T18:59:42.495Z,23.60
2018-06-23T19:02:10.636Z,23.50
2018-06-23T19:07:06.732Z,23.40
2018-06-23T19:09:34.872Z,23.30
2018-06-23T19:12:03.014Z,23.40
2018-06-23T19:14:31.141Z,23.20
2018-06-23T19:16:59.275Z,23.10
2018-06-23T19:21:55.287Z,23.00
2018-06-23T19:24:23.395Z,22.80
2018-06-23T19:26:52.591Z,22.80
2018-06-23T19:29:20.699Z,22.80
2018-06-23T19:31:48.831Z,22.80
2018-06-23T19:34:16.962Z,22.80
2018-06-23T19:36:45.072Z,22.70
2018-06-23T19:39:13.256Z,22.60
2018-06-23T19:41:41.392Z,22.50
2018-06-23T19:44:09.679Z,22.60
2018-06-23T19:46:37.832Z,22.40
2018-06-23T19:49:05.971Z,22.30
2018-06-23T19:51:34.130Z,22.30
2018-06-23T19:54:02.289Z,22.10
2018-06-23T19:56:30.407Z,22.10
2018-06-23T19:58:58.594Z,22.00
2018-06-23T20:01:26.736Z,21.90
2018-06-23T20:03:54.884Z,21.80
2018-06-23T20:06:23.005Z,21.70
2018-06-23T20:08:51.165Z,21.70
2018-06-23T20:11:19.303Z,21.70
2018-06-23T20:13:47.428Z,21.70
2018-06-23T20:16:15.559Z,21.80
2018-06-23T20:18:43.712Z,21.80
2018-06-23T20:21:11.899Z,21.70
2018-06-23T20:23:40.016Z,21.60
2018-06-23T20:26:08.144Z,21.60
2018-06-23T20:28:36.330Z,21.60
2018-06-23T20:31:04.530Z,21.60
2018-06-23T20:33:32.671Z,21.60
2018-06-23T20:36:00.813Z,21.40
2018-06-23T20:38:29.032Z,21.30
2018-06-23T20:40:57.184Z,21.40
2018-06-23T20:43:25.383Z,21.20
2018-06-23T20:45:53.717Z,21.10
2018-06-23T20:48:21.915Z,21.00
2018-06-23T20:50:50.208Z,21.00
2018-06-23T20:53:18.408Z,20.80
2018-06-23T20:55:46.636Z,20.50
2018-06-23T20:58:14.826Z,20.50
2018-06-23T21:00:43.037Z,20.60
2018-06-23T21:03:11.220Z,20.60
2018-06-23T21:05:39.430Z,20.70
2018-06-23T21:08:07.607Z,20.80
2018-06-23T21:10:42.291Z,20.80
2018-06-23T21:13:10.879Z,20.70
2018-06-23T21:15:39.127Z,20.80
2018-06-23T21:18:07.646Z,20.70
2018-06-23T21:20:35.779Z,20.60
2018-06-23T21:23:04.003Z,20.60
2018-06-23T21:25:32.133Z,20.40
2018-06-23T21:28:00.320Z,20.40
2018-06-23T21:30:28.408Z,20.30
2018-06-23T21:32:56.537Z,20.30
2018-06-23T21:35:25.437Z,20.50
2018-06-23T21:37:53.809Z,20.60
2018-06-23T21:40:21.929Z,20.60
2018-06-23T21:45:18.011Z,20.30
2018-06-23T21:47:46.106Z,20.30
2018-06-23T21:50:14.240Z,20.30
2018-06-23T21:52:42.359Z,20.30
2018-06-23T21:55:10.484Z,20.20
2018-06-23T21:57:38.588Z,20.10
2018-06-23T22:00:08.639Z,20.10
2018-06-23T22:02:36.766Z,20.00
2018-06-23T22:05:05.008Z,20.10
2018-06-23T22:07:33.107Z,20.00
2018-06-23T22:10:01.214Z,20.10
2018-06-23T22:12:29.384Z,20.20
2018-06-23T22:14:57.513Z,20.10
2018-06-23T22:17:25.859Z,20.10
2018-06-23T22:19:54.939Z,20.10
2018-06-23T22:22:23.081Z,20.20
2018-06-23T22:24:52.630Z,20.10
2018-06-23T22:27:21.670Z,20.00
2018-06-23T22:29:49.800Z,20.00
2018-06-23T22:32:17.916Z,19.90
2018-06-23T22:34:46.131Z,19.90
2018-06-23T22:37:14.265Z,20.00
2018-06-23T22:39:42.398Z,20.10
2018-06-23T22:42:10.512Z,20.10
2018-06-23T22:44:38.623Z,20.20
2018-06-23T22:47:06.741Z,20.20
2018-06-23T22:49:34.849Z,20.10
2018-06-23T22:52:02.995Z,19.90
2018-06-23T22:54:31.124Z,20.00
2018-06-23T22:56:59.241Z,20.00
2018-06-23T22:59:27.361Z,20.00
2018-06-23T23:01:55.498Z,20.00
2018-06-23T23:04:23.687Z,19.90
2018-06-23T23:06:51.849Z,19.80
2018-06-23T23:09:19.954Z,19.60
2018-06-23T23:11:48.054Z,19.70
2018-06-23T23:14:16.183Z,19.80
2018-06-23T23:16:44.292Z,19.80
2018-06-23T23:19:12.409Z,19.80
2018-06-23T23:21:40.520Z,19.80
2018-06-23T23:24:08.807Z,19.80
2018-06-23T23:26:37.082Z,19.80
2018-06-23T23:29:05.509Z,19.80
2018-06-23T23:31:33.624Z,19.70
2018-06-23T23:34:01.769Z,19.60
2018-06-23T23:36:29.887Z,19.60
2018-06-23T23:38:58.057Z,19.60
2018-06-23T23:41:26.167Z,19.40
2018-06-23T23:43:54.289Z,19.40
2018-06-23T23:46:22.403Z,19.50
2018-06-23T23:51:19.571Z,19.50
2018-06-23T23:53:47.682Z,19.20
2018-06-23T23:56:15.815Z,19.20
2018-06-23T23:58:43.951Z,19.20
